createdAt,value
2019-03-27T00:00:36.062Z,13.00
2019-03-27T00:01:41.815Z,12.60
2019-03-27T00:02:47.620Z,12.18
2019-03-27T00:03:53.396Z,12.10
2019-03-27T00:05:00.311Z,12.30
2019-03-27T00:06:06.051Z,10.95
2019-03-27T00:07:11.935Z,10.28
2019-03-27T00:08:17.673Z,11.43
2019-03-27T00:09:23.456Z,11.38
2019-03-27T00:10:29.281Z,10.53
2019-03-27T00:11:36.943Z,11.35
2019-03-27T00:12:42.835Z,10.60
2019-03-27T00:13:48.564Z,11.93
2019-03-27T00:14:55.444Z,11.48
2019-03-27T00:16:01.349Z,10.50
2019-03-27T00:17:07.052Z,11.00
2019-03-27T00:18:12.794Z,10.43
2019-03-27T00:19:18.584Z,11.57
2019-03-27T00:20:24.409Z,12.23
2019-03-27T00:21:30.115Z,10.98
2019-03-27T00:22:37.987Z,10.78
2019-03-27T00:23:44.858Z,12.78
2019-03-27T00:24:50.622Z,11.73
2019-03-27T00:25:56.423Z,11.75
2019-03-27T00:27:02.212Z,10.95
2019-03-27T00:28:07.959Z,10.72
2019-03-27T00:29:13.695Z,10.78
2019-03-27T00:30:19.467Z,10.63
2019-03-27T00:31:26.420Z,10.70
2019-03-27T00:32:32.321Z,10.70
2019-03-27T00:33:38.064Z,9.33
2019-03-27T00:34:43.859Z,9.95
2019-03-27T00:35:49.605Z,10.18
2019-03-27T00:36:55.376Z,10.10
2019-03-27T00:38:01.081Z,10.13
2019-03-27T00:39:08.359Z,10.25
2019-03-27T00:40:14.095Z,10.58
2019-03-27T00:41:19.834Z,9.53
2019-03-27T00:42:26.962Z,9.13
2019-03-27T00:43:32.703Z,9.83
2019-03-27T00:44:38.452Z,9.58
2019-03-27T00:45:44.230Z,10.23
2019-03-27T00:46:50.017Z,9.95
2019-03-27T00:47:55.779Z,9.70
2019-03-27T00:49:01.523Z,9.93
2019-03-27T00:50:11.174Z,10.23
2019-03-27T00:51:16.971Z,9.98
2019-03-27T00:52:22.717Z,10.75
2019-03-27T00:53:28.457Z,10.63
2019-03-27T00:54:35.983Z,9.85
2019-03-27T00:55:42.007Z,9.33
2019-03-27T00:56:47.868Z,9.78
2019-03-27T00:57:53.652Z,10.28
2019-03-27T00:58:59.366Z,9.30
2019-03-27T01:00:12.483Z,8.83
2019-03-27T01:01:18.369Z,9.83
2019-03-27T01:02:24.171Z,9.53
2019-03-27T01:03:29.971Z,10.10
2019-03-27T01:04:36.923Z,9.93
2019-03-27T01:05:43.884Z,9.33
2019-03-27T01:06:51.150Z,9.23
2019-03-27T01:07:57.073Z,9.70
2019-03-27T01:09:02.841Z,9.93
2019-03-27T01:10:10.227Z,9.83
2019-03-27T01:11:16.003Z,9.08
2019-03-27T01:12:21.753Z,9.03
2019-03-27T01:13:27.467Z,9.43
2019-03-27T01:14:34.015Z,8.03
2019-03-27T01:15:40.399Z,8.85
2019-03-27T01:16:46.164Z,9.93
2019-03-27T01:17:51.885Z,7.87
2019-03-27T01:18:58.816Z,8.65
2019-03-27T01:20:06.797Z,8.30
2019-03-27T01:21:14.965Z,8.10
2019-03-27T01:22:20.771Z,8.10
2019-03-27T01:23:26.980Z,8.63
2019-03-27T01:24:33.654Z,8.63
2019-03-27T01:25:39.476Z,7.35
2019-03-27T01:26:46.453Z,7.12
2019-03-27T01:27:52.235Z,7.97
2019-03-27T01:28:59.084Z,8.53
2019-03-27T01:30:06.630Z,7.70
2019-03-27T01:31:12.405Z,7.70
2019-03-27T01:32:18.191Z,8.40
2019-03-27T01:33:23.954Z,7.42
2019-03-27T01:34:29.659Z,8.10
2019-03-27T01:35:35.476Z,7.95
2019-03-27T01:36:41.236Z,8.55
2019-03-27T01:37:46.968Z,8.03
2019-03-27T01:38:52.692Z,7.67
2019-03-27T01:39:58.439Z,9.20
2019-03-27T01:41:04.161Z,9.35
2019-03-27T01:42:09.852Z,9.85
2019-03-27T01:43:15.676Z,10.48
2019-03-27T01:44:21.409Z,9.63
2019-03-27T01:45:27.171Z,9.50
2019-03-27T01:46:34.145Z,9.30
2019-03-27T01:47:41.115Z,10.05
2019-03-27T01:48:47.354Z,10.78
2019-03-27T01:49:53.113Z,10.32
2019-03-27T01:50:58.992Z,9.60
2019-03-27T01:52:08.145Z,10.48
2019-03-27T01:53:14.077Z,9.80
2019-03-27T01:54:19.815Z,9.73
2019-03-27T01:55:25.536Z,10.10
2019-03-27T01:56:31.268Z,8.80
2019-03-27T01:57:37.089Z,10.72
2019-03-27T01:58:42.869Z,10.72
2019-03-27T01:59:50.140Z,10.48
2019-03-27T02:00:55.964Z,10.80
2019-03-27T02:02:01.688Z,10.88
2019-03-27T02:03:12.897Z,11.83
2019-03-27T02:04:18.611Z,12.45
2019-03-27T02:05:24.562Z,10.82
2019-03-27T02:06:30.234Z,11.83
2019-03-27T02:07:37.356Z,11.00
2019-03-27T02:08:43.112Z,10.58
2019-03-27T02:09:48.854Z,10.90
2019-03-27T02:10:54.647Z,10.88
2019-03-27T02:12:00.422Z,10.43
2019-03-27T02:13:06.264Z,10.50
2019-03-27T02:14:12.068Z,12.10
2019-03-27T02:15:19.074Z,10.50
2019-03-27T02:16:24.754Z,9.73
2019-03-27T02:17:30.453Z,9.73
2019-03-27T02:18:36.220Z,9.60
2019-03-27T02:19:42.067Z,9.70
2019-03-27T02:20:48.399Z,9.40
2019-03-27T02:21:54.232Z,10.40
2019-03-27T02:23:00.046Z,11.20
2019-03-27T02:24:05.782Z,9.60
2019-03-27T02:25:11.525Z,9.65
2019-03-27T02:26:18.640Z,10.38
2019-03-27T02:27:25.663Z,10.32
2019-03-27T02:28:31.451Z,10.10
2019-03-27T02:29:37.150Z,10.55
2019-03-27T02:30:42.936Z,11.53
2019-03-27T02:31:48.617Z,11.73
2019-03-27T02:32:54.386Z,10.72
2019-03-27T02:34:00.227Z,11.35
2019-03-27T02:35:06.589Z,12.53
2019-03-27T02:36:12.371Z,13.93
2019-03-27T02:37:19.644Z,14.90
2019-03-27T02:38:25.556Z,18.02
2019-03-27T02:39:31.282Z,17.85
2019-03-27T02:40:37.142Z,18.27
2019-03-27T02:41:44.311Z,24.15
2019-03-27T02:42:50.276Z,29.07
2019-03-27T02:43:56.010Z,33.00
2019-03-27T02:45:01.740Z,55.75
2019-03-27T02:46:23.382Z,86.95
2019-03-27T02:47:15.000Z,91.45
2019-03-27T02:48:20.701Z,115.17
2019-03-27T02:49:26.521Z,100.82
2019-03-27T02:50:32.238Z,89.42
2019-03-27T02:51:37.982Z,79.75
2019-03-27T02:52:43.725Z,109.60
2019-03-27T02:53:50.327Z,93.25
2019-03-27T02:54:56.064Z,91.25
2019-03-27T02:56:01.812Z,80.28
2019-03-27T02:57:07.599Z,74.40
2019-03-27T02:58:13.382Z,77.80
2019-03-27T02:59:19.067Z,79.03
2019-03-27T03:00:24.866Z,83.15
2019-03-27T03:01:30.806Z,77.78
2019-03-27T03:02:37.906Z,78.22
2019-03-27T03:03:43.744Z,67.72
2019-03-27T03:04:49.536Z,71.37
2019-03-27T03:05:55.330Z,60.65
2019-03-27T03:07:01.102Z,65.37
2019-03-27T03:08:07.997Z,58.98
2019-03-27T03:09:13.753Z,41.00
2019-03-27T03:10:20.760Z,41.77
2019-03-27T03:11:27.738Z,59.38
2019-03-27T03:12:33.533Z,71.57
2019-03-27T03:13:39.270Z,68.60
2019-03-27T03:14:44.984Z,54.75
2019-03-27T03:15:50.856Z,41.58
2019-03-27T03:16:58.660Z,38.40
2019-03-27T03:18:04.396Z,32.20
2019-03-27T03:19:10.672Z,28.52
2019-03-27T03:20:16.439Z,25.95
2019-03-27T03:21:22.159Z,23.77
2019-03-27T03:22:27.948Z,19.95
2019-03-27T03:23:33.635Z,18.90
2019-03-27T03:24:39.350Z,19.30
2019-03-27T03:25:45.108Z,19.27
2019-03-27T03:26:51.643Z,19.25
2019-03-27T03:27:58.555Z,20.12
2019-03-27T03:29:04.259Z,18.30
2019-03-27T03:30:11.706Z,16.95
2019-03-27T03:31:17.498Z,18.35
2019-03-27T03:32:23.198Z,20.27
2019-03-27T03:33:28.924Z,21.97
2019-03-27T03:34:34.683Z,19.82
2019-03-27T03:35:41.188Z,21.00
2019-03-27T03:36:46.937Z,21.17
2019-03-27T03:37:52.651Z,19.35
2019-03-27T03:38:59.562Z,20.52
2019-03-27T03:40:09.149Z,20.02
2019-03-27T03:41:14.874Z,19.27
2019-03-27T03:42:21.861Z,18.57
2019-03-27T03:43:27.684Z,20.68
2019-03-27T03:44:34.238Z,19.05
2019-03-27T03:45:40.425Z,19.65
2019-03-27T03:46:58.838Z,17.75
2019-03-27T03:47:53.626Z,18.40
2019-03-27T03:48:59.327Z,19.65
2019-03-27T03:50:07.829Z,18.52
2019-03-27T03:51:13.541Z,19.10
2019-03-27T03:52:20.475Z,18.50
2019-03-27T03:53:27.034Z,21.00
2019-03-27T03:54:32.748Z,19.48
2019-03-27T03:55:40.082Z,19.70
2019-03-27T03:56:45.778Z,19.92
2019-03-27T03:57:51.544Z,20.77
2019-03-27T03:58:59.431Z,23.15
2019-03-27T04:00:07.159Z,22.27
2019-03-27T04:01:13.297Z,24.85
2019-03-27T04:02:19.022Z,20.82
2019-03-27T04:03:27.018Z,21.35
2019-03-27T04:04:32.761Z,21.00
2019-03-27T04:05:39.613Z,23.05
2019-03-27T04:06:45.352Z,25.45
2019-03-27T04:07:51.064Z,24.65
2019-03-27T04:08:56.838Z,25.05
2019-03-27T04:10:02.563Z,24.15
2019-03-27T04:11:09.898Z,24.63
2019-03-27T04:12:15.817Z,25.12
2019-03-27T04:13:21.512Z,29.45
2019-03-27T04:14:27.248Z,30.05
2019-03-27T04:15:34.043Z,26.45
2019-03-27T04:16:39.754Z,27.00
2019-03-27T04:17:45.539Z,30.70
2019-03-27T04:18:51.238Z,28.70
2019-03-27T04:19:56.943Z,28.57
2019-03-27T04:21:02.651Z,28.83
2019-03-27T04:22:08.390Z,27.60
2019-03-27T04:23:14.138Z,26.55
2019-03-27T04:24:19.853Z,27.45
2019-03-27T04:25:27.665Z,25.72
2019-03-27T04:26:35.081Z,24.00
2019-03-27T04:27:40.829Z,25.68
2019-03-27T04:28:46.614Z,24.18
2019-03-27T04:29:52.370Z,23.73
2019-03-27T04:30:58.091Z,22.07
2019-03-27T04:32:05.151Z,22.02
2019-03-27T04:33:10.918Z,21.97
2019-03-27T04:34:16.672Z,22.27
2019-03-27T04:35:22.502Z,20.30
2019-03-27T04:36:28.185Z,21.75
2019-03-27T04:37:33.948Z,22.15
2019-03-27T04:38:40.961Z,19.87
2019-03-27T04:39:46.676Z,20.12
2019-03-27T04:40:52.421Z,19.95
2019-03-27T04:41:59.757Z,19.92
2019-03-27T04:43:05.473Z,18.15
2019-03-27T04:44:11.211Z,19.42
2019-03-27T04:45:17.433Z,20.35
2019-03-27T04:46:23.231Z,20.05
2019-03-27T04:47:32.384Z,18.35
2019-03-27T04:48:37.682Z,19.02
2019-03-27T04:49:44.104Z,18.67
2019-03-27T04:50:50.698Z,17.37
2019-03-27T04:51:56.439Z,19.05
2019-03-27T04:53:04.108Z,17.50
2019-03-27T04:54:09.878Z,17.85
2019-03-27T04:55:15.584Z,16.52
2019-03-27T04:56:23.005Z,17.55
2019-03-27T04:57:28.897Z,17.98
2019-03-27T04:58:34.730Z,17.05
2019-03-27T04:59:40.476Z,16.80
2019-03-27T05:00:46.228Z,17.73
2019-03-27T05:01:52.095Z,17.67
2019-03-27T05:02:57.924Z,18.67
2019-03-27T05:04:04.151Z,20.12
2019-03-27T05:05:10.569Z,22.55
2019-03-27T05:06:16.378Z,23.32
2019-03-27T05:07:22.151Z,20.75
2019-03-27T05:08:27.958Z,20.75
2019-03-27T05:09:34.287Z,20.48
2019-03-27T05:10:41.306Z,20.32
2019-03-27T05:11:48.482Z,21.62
2019-03-27T05:12:54.296Z,19.07
2019-03-27T05:14:00.000Z,19.75
2019-03-27T05:15:07.922Z,20.27
2019-03-27T05:16:13.674Z,21.48
2019-03-27T05:17:19.373Z,19.55
2019-03-27T05:18:26.792Z,19.17
2019-03-27T05:19:32.546Z,16.95
2019-03-27T05:20:39.642Z,15.20
2019-03-27T05:21:45.613Z,14.23
2019-03-27T05:22:51.428Z,14.23
2019-03-27T05:23:57.180Z,14.15
2019-03-27T05:25:02.973Z,13.95
2019-03-27T05:26:08.740Z,13.98
2019-03-27T05:27:14.624Z,13.15
2019-03-27T05:28:20.401Z,13.65
2019-03-27T05:29:28.940Z,14.18
2019-03-27T05:30:34.711Z,14.30
2019-03-27T05:31:41.790Z,16.45
2019-03-27T05:32:54.872Z,14.90
2019-03-27T05:34:00.840Z,14.78
2019-03-27T05:35:07.878Z,15.55
2019-03-27T05:36:13.586Z,15.25
2019-03-27T05:37:19.305Z,16.75
2019-03-27T05:38:25.064Z,18.00
2019-03-27T05:39:31.667Z,18.95
2019-03-27T05:40:37.473Z,19.87
2019-03-27T05:42:16.327Z,20.10
2019-03-27T05:43:30.530Z,20.40
2019-03-27T05:44:37.136Z,21.42
2019-03-27T05:45:43.031Z,18.90
2019-03-27T05:46:48.747Z,16.50
2019-03-27T05:47:59.789Z,16.87
2019-03-27T05:49:01.840Z,16.87
2019-03-27T05:50:07.597Z,17.07
2019-03-27T05:51:13.369Z,16.48
2019-03-27T05:52:20.179Z,15.63
2019-03-27T05:53:35.524Z,15.83
2019-03-27T05:54:44.620Z,17.00
2019-03-27T05:55:50.547Z,16.93
2019-03-27T05:56:56.292Z,17.52
2019-03-27T05:58:03.076Z,17.75
2019-03-27T05:59:09.129Z,13.05
2019-03-27T06:00:16.615Z,9.80
2019-03-27T06:01:22.720Z,9.03
2019-03-27T06:02:28.792Z,9.07
2019-03-27T06:03:34.530Z,8.13
2019-03-27T06:04:40.298Z,8.23
2019-03-27T06:05:47.688Z,7.70
2019-03-27T06:06:53.409Z,9.47
2019-03-27T06:07:59.201Z,10.30
2019-03-27T06:09:06.270Z,13.63
2019-03-27T06:10:12.188Z,15.00
2019-03-27T06:11:18.466Z,17.27
2019-03-27T06:12:24.212Z,19.30
2019-03-27T06:13:30.028Z,15.13
2019-03-27T06:14:35.825Z,9.90
2019-03-27T06:15:44.894Z,8.70
2019-03-27T06:16:49.624Z,8.07
2019-03-27T06:17:56.644Z,8.33
2019-03-27T06:19:02.778Z,9.00
2019-03-27T06:20:09.331Z,10.20
2019-03-27T06:21:15.167Z,12.07
2019-03-27T06:22:21.151Z,11.33
2019-03-27T06:23:27.786Z,10.90
2019-03-27T06:24:33.709Z,11.80
2019-03-27T06:25:39.423Z,10.03
2019-03-27T06:26:46.846Z,22.80
2019-03-27T06:28:07.919Z,13.23
2019-03-27T06:29:15.887Z,9.17
2019-03-27T06:30:21.719Z,9.67
2019-03-27T06:31:27.954Z,9.27
2019-03-27T06:32:33.876Z,8.10
2019-03-27T06:33:39.758Z,8.33
2019-03-27T06:34:45.515Z,8.67
2019-03-27T06:35:51.693Z,8.30
2019-03-27T06:36:57.829Z,7.27
2019-03-27T06:38:04.545Z,7.60
2019-03-27T06:39:11.049Z,9.97
2019-03-27T06:40:18.149Z,8.90
2019-03-27T06:41:26.158Z,8.77
2019-03-27T06:42:31.864Z,8.63
2019-03-27T06:43:37.753Z,10.23
2019-03-27T06:44:43.558Z,9.57
2019-03-27T06:45:51.896Z,7.90
2019-03-27T06:46:57.748Z,8.10
2019-03-27T06:48:03.594Z,8.00
2019-03-27T06:49:09.355Z,10.27
2019-03-27T06:50:15.119Z,8.70
2019-03-27T06:51:20.923Z,8.47
2019-03-27T06:52:26.731Z,11.00
2019-03-27T06:53:32.609Z,16.17
2019-03-27T06:54:40.271Z,24.23
2019-03-27T06:55:46.437Z,8.83
2019-03-27T06:56:52.807Z,17.60
2019-03-27T06:58:00.445Z,12.70
2019-03-27T06:59:06.240Z,17.40
2019-03-27T07:00:12.304Z,8.85
2019-03-27T07:01:18.205Z,7.50
2019-03-27T07:02:24.306Z,9.78
2019-03-27T07:03:31.373Z,8.18
2019-03-27T07:04:38.064Z,7.75
2019-03-27T07:05:43.862Z,7.05
2019-03-27T07:06:49.796Z,8.73
2019-03-27T07:07:56.728Z,8.50
2019-03-27T07:09:02.551Z,7.30
2019-03-27T07:10:08.925Z,7.53
2019-03-27T07:11:22.498Z,7.60
2019-03-27T07:12:28.367Z,9.85
2019-03-27T07:13:34.173Z,9.08
2019-03-27T07:14:40.077Z,9.33
2019-03-27T07:15:46.055Z,7.70
2019-03-27T07:16:51.902Z,10.10
2019-03-27T07:17:57.832Z,8.30
2019-03-27T07:19:03.704Z,8.13
2019-03-27T07:20:09.571Z,7.90
2019-03-27T07:21:16.449Z,10.47
2019-03-27T07:22:23.372Z,18.50
2019-03-27T07:23:29.179Z,13.07
2019-03-27T07:24:34.962Z,9.80
2019-03-27T07:25:42.593Z,8.57
2019-03-27T07:26:48.683Z,10.23
2019-03-27T07:27:54.424Z,11.80
2019-03-27T07:29:00.344Z,11.60
2019-03-27T07:30:07.485Z,9.30
2019-03-27T07:31:13.356Z,7.23
2019-03-27T07:32:19.081Z,8.70
2019-03-27T07:33:24.989Z,6.67
2019-03-27T07:34:30.902Z,9.50
2019-03-27T07:35:36.713Z,8.67
2019-03-27T07:36:43.837Z,9.23
2019-03-27T07:37:49.580Z,8.07
2019-03-27T07:38:55.503Z,9.97
2019-03-27T07:40:01.535Z,7.90
2019-03-27T07:41:07.671Z,6.70
2019-03-27T07:42:13.595Z,8.33
2019-03-27T07:43:19.377Z,8.43
2019-03-27T07:44:25.147Z,11.37
2019-03-27T07:45:32.508Z,9.07
2019-03-27T07:46:39.644Z,7.57
2019-03-27T07:47:48.147Z,8.70
2019-03-27T07:48:54.460Z,5.40
2019-03-27T07:50:01.599Z,5.87
2019-03-27T07:51:07.455Z,5.13
2019-03-27T07:52:13.184Z,6.73
2019-03-27T07:53:22.636Z,6.67
2019-03-27T07:54:28.539Z,6.50
2019-03-27T07:55:35.493Z,9.33
2019-03-27T07:56:41.401Z,9.03
2019-03-27T07:57:47.179Z,7.17
2019-03-27T07:58:52.991Z,6.63
2019-03-27T07:59:59.039Z,8.80
2019-03-27T08:01:04.821Z,7.50
2019-03-27T08:02:10.883Z,7.73
2019-03-27T08:03:16.765Z,7.23
2019-03-27T08:04:22.835Z,7.05
2019-03-27T08:05:28.766Z,6.85
2019-03-27T08:06:37.554Z,6.47
2019-03-27T08:07:43.390Z,10.60
2019-03-27T08:08:49.293Z,9.03
2019-03-27T08:09:55.094Z,6.13
2019-03-27T08:11:01.037Z,6.13
2019-03-27T08:12:06.894Z,7.97
2019-03-27T08:13:12.698Z,8.80
2019-03-27T08:14:18.645Z,7.37
2019-03-27T08:15:24.457Z,8.43
2019-03-27T08:16:30.917Z,7.05
2019-03-27T08:17:37.620Z,10.13
2019-03-27T08:18:45.255Z,9.35
2019-03-27T08:19:51.286Z,7.28
2019-03-27T08:20:57.225Z,8.98
2019-03-27T08:22:03.291Z,8.50
2019-03-27T08:23:09.397Z,6.78
2019-03-27T08:24:15.365Z,7.65
2019-03-27T08:25:21.185Z,7.17
2019-03-27T08:26:26.931Z,7.28
2019-03-27T08:27:32.747Z,8.30
2019-03-27T08:28:38.831Z,5.85
2019-03-27T08:29:45.578Z,5.55
2019-03-27T08:30:52.406Z,6.87
2019-03-27T08:31:58.324Z,6.15
2019-03-27T08:33:04.566Z,5.92
2019-03-27T08:34:10.316Z,5.37
2019-03-27T08:35:16.115Z,5.33
2019-03-27T08:36:21.877Z,5.37
2019-03-27T08:37:27.687Z,5.33
2019-03-27T08:38:33.475Z,5.25
2019-03-27T08:39:39.388Z,5.92
2019-03-27T08:40:45.279Z,10.53
2019-03-27T08:41:52.760Z,8.55
2019-03-27T08:42:59.412Z,5.00
2019-03-27T08:44:05.452Z,5.65
2019-03-27T08:45:14.319Z,4.17
2019-03-27T08:46:20.505Z,5.20
2019-03-27T08:47:26.509Z,5.30
2019-03-27T08:48:32.382Z,4.47
2019-03-27T08:49:38.241Z,4.17
2019-03-27T08:50:44.278Z,4.45
2019-03-27T08:51:50.235Z,5.10
2019-03-27T08:52:56.181Z,5.05
2019-03-27T08:54:02.975Z,4.42
2019-03-27T08:55:09.235Z,5.13
2019-03-27T08:56:15.024Z,5.50
2019-03-27T08:57:20.812Z,6.00
2019-03-27T08:58:26.605Z,4.65
2019-03-27T08:59:32.606Z,5.55
2019-03-27T09:00:54.850Z,6.03
2019-03-27T09:02:00.668Z,5.95
2019-03-27T09:03:06.491Z,6.90
2019-03-27T09:04:12.396Z,6.07
2019-03-27T09:05:18.242Z,5.85
2019-03-27T09:06:33.499Z,7.20
2019-03-27T09:07:31.366Z,5.65
2019-03-27T09:08:37.248Z,6.62
2019-03-27T09:09:43.021Z,7.22
2019-03-27T09:10:48.939Z,6.83
2019-03-27T09:11:54.691Z,5.67
2019-03-27T09:13:07.305Z,5.90
2019-03-27T09:14:13.154Z,7.92
2019-03-27T09:15:18.932Z,6.53
2019-03-27T09:16:24.709Z,5.00
2019-03-27T09:17:30.445Z,5.10
2019-03-27T09:18:37.495Z,5.80
2019-03-27T09:19:43.710Z,7.08
2019-03-27T09:20:49.791Z,5.17
2019-03-27T09:21:55.858Z,6.30
2019-03-27T09:23:01.727Z,6.12
2019-03-27T09:24:07.708Z,5.42
2019-03-27T09:25:13.647Z,5.50
2019-03-27T09:26:19.719Z,6.50
2019-03-27T09:27:25.469Z,6.40
2019-03-27T09:28:31.491Z,6.15
2019-03-27T09:29:37.289Z,6.42
2019-03-27T09:30:43.381Z,5.43
2019-03-27T09:31:49.369Z,5.75
2019-03-27T09:32:55.215Z,5.55
2019-03-27T09:34:01.189Z,5.93
2019-03-27T09:35:07.113Z,6.27
2019-03-27T09:36:12.995Z,5.87
2019-03-27T09:37:18.754Z,4.70
2019-03-27T09:38:24.665Z,4.45
2019-03-27T09:39:30.641Z,5.47
2019-03-27T09:40:36.443Z,4.30
2019-03-27T09:41:42.300Z,4.80
2019-03-27T09:42:48.053Z,4.85
2019-03-27T09:43:54.171Z,4.60
2019-03-27T09:45:00.102Z,4.80
2019-03-27T09:46:05.945Z,4.43
2019-03-27T09:47:11.852Z,3.93
2019-03-27T09:48:17.675Z,6.75
2019-03-27T09:49:23.760Z,7.20
2019-03-27T09:50:29.788Z,6.47
2019-03-27T09:51:35.845Z,4.50
2019-03-27T09:52:41.789Z,4.23
2019-03-27T09:53:47.859Z,4.07
2019-03-27T09:54:54.034Z,4.47
2019-03-27T09:55:59.807Z,5.23
2019-03-27T09:57:05.619Z,4.10
2019-03-27T09:58:11.609Z,4.10
2019-03-27T09:59:17.837Z,2.77
2019-03-27T10:00:49.807Z,3.00
2019-03-27T10:01:55.867Z,2.60
2019-03-27T10:03:01.953Z,2.23
2019-03-27T10:04:07.885Z,2.53
2019-03-27T10:05:14.748Z,3.40
2019-03-27T10:06:20.710Z,3.37
2019-03-27T10:07:26.581Z,3.30
2019-03-27T10:08:32.464Z,2.60
2019-03-27T10:09:38.557Z,3.30
2019-03-27T10:10:44.393Z,3.60
2019-03-27T10:11:50.421Z,3.00
2019-03-27T10:12:56.477Z,5.03
2019-03-27T10:14:02.279Z,4.43
2019-03-27T10:15:09.155Z,4.30
2019-03-27T10:16:14.983Z,2.97
2019-03-27T10:17:20.767Z,3.90
2019-03-27T10:18:26.535Z,7.87
2019-03-27T10:19:32.300Z,8.17
2019-03-27T10:20:38.078Z,6.83
2019-03-27T10:21:43.936Z,5.10
2019-03-27T10:22:49.712Z,4.33
2019-03-27T10:23:55.639Z,3.57
2019-03-27T10:25:01.475Z,3.77
2019-03-27T10:26:07.473Z,3.47
2019-03-27T10:27:13.360Z,2.67
2019-03-27T10:28:19.189Z,2.60
2019-03-27T10:29:25.252Z,2.73
2019-03-27T10:30:31.114Z,2.53
2019-03-27T10:31:37.027Z,3.27
2019-03-27T10:32:43.300Z,3.67
2019-03-27T10:33:49.257Z,3.50
2019-03-27T10:34:55.125Z,3.23
2019-03-27T10:36:01.085Z,3.03
2019-03-27T10:37:06.953Z,2.77
2019-03-27T10:38:12.727Z,2.83
2019-03-27T10:39:18.706Z,2.40
2019-03-27T10:40:24.604Z,5.70
2019-03-27T10:41:30.441Z,6.37
2019-03-27T10:42:36.359Z,17.53
2019-03-27T10:43:42.131Z,9.80
2019-03-27T10:44:48.022Z,6.27
2019-03-27T10:45:54.058Z,3.10
2019-03-27T10:47:00.109Z,4.90
2019-03-27T10:48:06.161Z,3.60
2019-03-27T10:49:12.162Z,4.23
2019-03-27T10:50:18.406Z,5.33
2019-03-27T10:51:24.310Z,3.27
2019-03-27T10:52:30.213Z,4.10
2019-03-27T10:53:37.105Z,2.90
2019-03-27T10:54:43.105Z,3.63
2019-03-27T10:55:48.996Z,3.67
2019-03-27T10:56:54.712Z,3.50
2019-03-27T10:58:00.564Z,3.73
2019-03-27T10:59:09.452Z,4.50
2019-03-27T11:00:15.295Z,5.20
2019-03-27T11:01:21.061Z,3.70
2019-03-27T11:02:26.941Z,4.37
2019-03-27T11:03:33.804Z,5.80
2019-03-27T11:04:39.652Z,4.20
2019-03-27T11:05:45.423Z,6.20
2019-03-27T11:06:51.582Z,4.07
2019-03-27T11:07:57.516Z,11.47
